Time;durP1;ratioP1;P1;durP2;ratioP2;P2;SDS_P1;SDS_P2;PMS_P1;PMS_P2;Temp;Humidity;BMP_temperature;BMP_pressure;BME280_temperature;BME280_humidity;BME280_pressure;Samples;Min_cycle;Max_cycle;Signal;HPM_P1;HPM_P2
2022/06/06 00:02:24;;;;;;;14.82;9.63;;;;;;;;;;5039276;28;20378;-76
2022/06/06 00:04:50;;;;;;;15.15;8.90;;;;;;;;;;5031604;28;20135;-76
2022/06/06 00:07:16;;;;;;;14.10;10.13;;;;;;;;;;5031067;28;20022;-77
2022/06/06 00:09:42;;;;;;;13.98;9.00;;;;;;;;;;5031394;28;20017;-78
2022/06/06 00:12:08;;;;;;;13.60;9.30;;;;;;;;;;5030420;28;20025;-75
2022/06/06 00:14:34;;;;;;;15.95;9.63;;;;;;;;;;5031224;28;20056;-76
2022/06/06 00:17:00;;;;;;;18.58;9.75;;;;;;;;;;5031050;28;20026;-77
2022/06/06 00:19:27;;;;;;;14.05;10.00;;;;;;;;;;5032285;28;20428;-76
2022/06/06 00:21:53;;;;;;;17.92;10.60;;;;;;;;;;5031981;28;20042;-76
2022/06/06 00:24:19;;;;;;;14.85;10.15;;;;;;;;;;5031848;28;20309;-76
2022/06/06 00:26:46;;;;;;;15.32;10.00;;;;;;;;;;5035084;28;20022;-76
2022/06/06 00:29:14;;;;;;;13.52;9.68;;;;;;;;;;5033328;28;20030;-77
2022/06/06 00:37:12;;;;;;;16.88;10.70;;;;;;;;;;5037981;28;20040;-77
2022/06/06 00:39:37;;;;;;;17.90;11.00;;;;;;;;;;5034015;28;20029;-76
2022/06/06 00:42:10;;;;;;;21.17;12.10;;;;;;;;;;5034963;28;20044;-76
2022/06/06 00:44:36;;;;;;;17.48;11.57;;;;;;;;;;5034112;28;20025;-75
2022/06/06 00:47:20;;;;;;;18.42;11.80;;;;;;;;;;5036046;28;20287;-77
2022/06/06 00:49:48;;;;;;;18.48;11.82;;;;;;;;;;5034380;28;20022;-75
2022/06/06 00:52:16;;;;;;;22.58;12.60;;;;;;;;;;5034735;28;20028;-76
2022/06/06 00:54:43;;;;;;;19.33;12.73;;;;;;;;;;5034994;28;20040;-75
2022/06/06 00:57:13;;;;;;;19.27;12.45;;;;;;;;;;5034393;28;20048;-75
2022/06/06 00:59:39;;;;;;;18.33;12.43;;;;;;;;;;5035713;28;20026;-77
2022/06/06 01:02:08;;;;;;;18.25;12.60;;;;;;;;;;5036579;28;20048;-75
2022/06/06 01:04:34;;;;;;;18.80;12.60;;;;;;;;;;5035559;28;20032;-76
2022/06/06 01:07:00;;;;;;;18.15;12.65;;;;;;;;;;5035005;28;20022;-76
2022/06/06 01:09:26;;;;;;;23.08;13.57;;;;;;;;;;5035840;28;20363;-75
2022/06/06 01:11:55;;;;;;;22.83;13.45;;;;;;;;;;5035294;28;20017;-76
2022/06/06 01:14:22;;;;;;;23.40;13.48;;;;;;;;;;5034388;28;20033;-75
2022/06/06 01:16:57;;;;;;;16.15;13.52;;;;;;;;;;5035501;28;20017;-75
2022/06/06 01:19:33;;;;;;;23.20;15.38;;;;;;;;;;5035650;28;20053;-75
2022/06/06 01:22:07;;;;;;;26.08;14.57;;;;;;;;;;5036209;28;20025;-75
2022/06/06 01:24:46;;;;;;;27.40;14.57;;;;;;;;;;5033146;28;20066;-74
2022/06/06 01:27:21;;;;;;;21.55;14.25;;;;;;;;;;5035555;28;20037;-76
2022/06/06 01:29:49;;;;;;;18.63;14.38;;;;;;;;;;5036093;28;20104;-76
2022/06/06 01:32:17;;;;;;;22.35;16.02;;;;;;;;;;5035200;28;20021;-75
2022/06/06 01:34:44;;;;;;;24.73;15.57;;;;;;;;;;5033912;28;20030;-76
2022/06/06 01:37:30;;;;;;;22.52;17.13;;;;;;;;;;5034559;28;20030;-76
2022/06/06 01:39:58;;;;;;;25.23;15.93;;;;;;;;;;5034216;28;20024;-75
2022/06/06 01:42:28;;;;;;;20.58;15.57;;;;;;;;;;5035210;28;20033;-75
2022/06/06 01:45:01;;;;;;;25.85;16.80;;;;;;;;;;5034103;28;20032;-77
2022/06/06 01:47:29;;;;;;;23.83;16.23;;;;;;;;;;5033210;28;20108;-77
2022/06/06 01:49:56;;;;;;;27.67;16.70;;;;;;;;;;5034102;28;20029;-75
2022/06/06 01:52:22;;;;;;;23.02;16.45;;;;;;;;;;5035772;28;20022;-75
2022/06/06 01:54:48;;;;;;;27.35;16.55;;;;;;;;;;5037440;28;20100;-76
2022/06/06 01:57:15;;;;;;;20.58;16.65;;;;;;;;;;5041298;28;20056;-77
2022/06/06 01:59:42;;;;;;;22.50;17.55;;;;;;;;;;5045923;28;20441;-76
2022/06/06 02:02:08;;;;;;;19.85;16.38;;;;;;;;;;5046562;28;20048;-77
2022/06/06 02:04:35;;;;;;;23.88;16.50;;;;;;;;;;5041071;28;20045;-77
2022/06/06 02:07:01;;;;;;;23.05;16.92;;;;;;;;;;5041399;28;20021;-76
2022/06/06 02:09:31;;;;;;;24.85;17.15;;;;;;;;;;5043709;28;20030;-79
2022/06/06 02:11:57;;;;;;;21.85;17.70;;;;;;;;;;5045875;28;20028;-76
2022/06/06 02:14:23;;;;;;;23.55;17.77;;;;;;;;;;5041068;28;20029;-77
2022/06/06 02:16:49;;;;;;;22.80;17.20;;;;;;;;;;5038334;28;20136;-76
2022/06/06 02:19:15;;;;;;;22.48;17.30;;;;;;;;;;5044001;28;20029;-77
2022/06/06 02:21:42;;;;;;;29.75;18.15;;;;;;;;;;5037445;28;20371;-76
2022/06/06 02:24:08;;;;;;;24.95;18.38;;;;;;;;;;5049397;28;20029;-75
2022/06/06 02:26:34;;;;;;;21.63;17.42;;;;;;;;;;5032586;28;20045;-76
2022/06/06 02:29:01;;;;;;;23.70;17.77;;;;;;;;;;5034207;28;20025;-75
2022/06/06 02:31:27;;;;;;;26.27;18.88;;;;;;;;;;5033813;28;20021;-75
2022/06/06 02:33:53;;;;;;;23.02;17.90;;;;;;;;;;5035986;28;20378;-75
2022/06/06 02:36:19;;;;;;;21.27;15.98;;;;;;;;;;5034268;28;20051;-76
2022/06/06 02:38:45;;;;;;;17.83;15.75;;;;;;;;;;5034168;28;20528;-76
2022/06/06 02:41:11;;;;;;;16.60;14.75;;;;;;;;;;5034123;28;20048;-74
2022/06/06 02:43:39;;;;;;;23.00;14.10;;;;;;;;;;5035023;28;20041;-75
2022/06/06 02:46:05;;;;;;;21.05;13.73;;;;;;;;;;5035283;28;20021;-77
2022/06/06 02:48:31;;;;;;;17.50;13.85;;;;;;;;;;5034230;28;20120;-76
2022/06/06 02:50:57;;;;;;;14.25;12.15;;;;;;;;;;5042828;28;20099;-76
2022/06/06 02:53:23;;;;;;;13.73;10.75;;;;;;;;;;5043416;28;20522;-75
2022/06/06 02:55:53;;;;;;;12.13;9.35;;;;;;;;;;5041472;28;20521;-77
2022/06/06 02:58:20;;;;;;;10.27;8.43;;;;;;;;;;5036596;28;20051;-76
2022/06/06 03:00:46;;;;;;;12.43;8.73;;;;;;;;;;5034567;28;20037;-76
2022/06/06 03:03:13;;;;;;;8.70;7.60;;;;;;;;;;5033511;28;20033;-76
2022/06/06 03:05:57;;;;;;;8.05;7.03;;;;;;;;;;5033405;28;20025;-76
2022/06/06 03:08:40;;;;;;;11.15;7.75;;;;;;;;;;5037239;28;20032;-76
2022/06/06 03:11:08;;;;;;;9.45;7.50;;;;;;;;;;5033773;28;20530;-75
2022/06/06 03:13:39;;;;;;;8.38;7.22;;;;;;;;;;5033575;28;20030;-75
2022/06/06 03:21:45;;;;;;;12.43;8.25;;;;;;;;;;5032894;28;20052;-76
2022/06/06 03:24:24;;;;;;;9.90;8.18;;;;;;;;;;5033056;28;20060;-75
2022/06/06 03:27:15;;;;;;;9.73;8.65;;;;;;;;;;5032584;28;20508;-75
2022/06/06 03:29:41;;;;;;;16.98;8.35;;;;;;;;;;5033324;28;20541;-75
2022/06/06 03:32:19;;;;;;;10.40;9.27;;;;;;;;;;5033601;28;20029;-75
2022/06/06 03:34:45;;;;;;;14.70;9.75;;;;;;;;;;5032940;28;20475;-77
2022/06/06 03:37:20;;;;;;;11.00;8.90;;;;;;;;;;5032595;28;20108;-75
2022/06/06 03:39:54;;;;;;;13.35;8.63;;;;;;;;;;5032560;28;20042;-76
2022/06/06 03:42:36;;;;;;;15.52;9.40;;;;;;;;;;5033379;28;20033;-77
2022/06/06 03:45:05;;;;;;;14.00;9.13;;;;;;;;;;5031316;28;20036;-75
2022/06/06 03:47:43;;;;;;;14.18;9.25;;;;;;;;;;5032296;28;20383;-76
2022/06/06 03:50:20;;;;;;;15.40;9.65;;;;;;;;;;5032845;28;20017;-75
2022/06/06 03:52:53;;;;;;;11.27;9.05;;;;;;;;;;5032904;28;20033;-76
2022/06/06 03:55:19;;;;;;;13.27;9.23;;;;;;;;;;5052642;28;20033;-75
2022/06/06 03:57:47;;;;;;;12.48;10.30;;;;;;;;;;5047786;28;20034;-76
2022/06/06 04:00:14;;;;;;;15.63;9.95;;;;;;;;;;5043532;28;20049;-76
2022/06/06 04:02:41;;;;;;;11.55;9.63;;;;;;;;;;5047681;28;20029;-75
2022/06/06 04:05:09;;;;;;;10.18;8.43;;;;;;;;;;5046234;28;20026;-76
2022/06/06 04:07:35;;;;;;;10.32;8.95;;;;;;;;;;5041212;28;20479;-77
2022/06/06 04:10:02;;;;;;;12.52;9.38;;;;;;;;;;5032903;28;20017;-77
2022/06/06 04:12:41;;;;;;;18.67;13.20;;;;;;;;;;5032531;28;20039;-77
2022/06/06 04:15:17;;;;;;;10.73;9.13;;;;;;;;;;5032609;28;20018;-76
2022/06/06 04:18:02;;;;;;;9.63;8.20;;;;;;;;;;5033274;28;20083;-76
2022/06/06 04:20:39;;;;;;;16.67;8.13;;;;;;;;;;5031972;28;20074;-75
2022/06/06 04:23:27;;;;;;;12.07;8.45;;;;;;;;;;5031267;28;20498;-75
2022/06/06 04:26:01;;;;;;;11.32;8.43;;;;;;;;;;5032468;28;20029;-75
2022/06/06 04:28:30;;;;;;;10.05;8.05;;;;;;;;;;5033433;28;20030;-76
2022/06/06 04:31:25;;;;;;;13.65;9.32;;;;;;;;;;5033706;28;20026;-76
2022/06/06 04:33:56;;;;;;;12.27;8.23;;;;;;;;;;5027560;28;20049;-74
2022/06/06 04:36:31;;;;;;;11.15;7.75;;;;;;;;;;5033457;28;20101;-76
2022/06/06 04:39:23;;;;;;;9.73;7.72;;;;;;;;;;5031337;28;20025;-75
2022/06/06 04:41:52;;;;;;;9.55;6.97;;;;;;;;;;5027957;28;20041;-75
2022/06/06 04:44:18;;;;;;;11.97;7.50;;;;;;;;;;5030751;28;20029;-74
2022/06/06 04:46:47;;;;;;;10.25;6.78;;;;;;;;;;5034016;28;20037;-75
2022/06/06 04:49:13;;;;;;;10.70;7.10;;;;;;;;;;5041276;28;20033;-75
2022/06/06 04:51:41;;;;;;;11.80;6.65;;;;;;;;;;5031870;28;20034;-76
2022/06/06 04:54:10;;;;;;;9.23;6.45;;;;;;;;;;5032408;28;20104;-76
2022/06/06 04:56:36;;;;;;;8.38;6.43;;;;;;;;;;5031768;28;20417;-75
2022/06/06 04:59:02;;;;;;;9.35;6.32;;;;;;;;;;5032157;28;20025;-74
2022/06/06 05:01:28;;;;;;;9.93;6.57;;;;;;;;;;5031949;28;20573;-74
2022/06/06 05:03:55;;;;;;;8.98;6.05;;;;;;;;;;5032143;28;20552;-75
2022/06/06 05:06:39;;;;;;;8.68;5.97;;;;;;;;;;5030218;28;20029;-75
2022/06/06 05:09:28;;;;;;;8.38;6.03;;;;;;;;;;5031918;28;20093;-76
2022/06/06 05:11:57;;;;;;;8.45;5.78;;;;;;;;;;5031513;28;20065;-76
2022/06/06 05:14:26;;;;;;;11.88;5.88;;;;;;;;;;5031855;28;20076;-74
2022/06/06 05:16:58;;;;;;;7.30;5.65;;;;;;;;;;5035458;28;20391;-75
2022/06/06 05:19:37;;;;;;;9.48;5.53;;;;;;;;;;5046246;28;20029;-76
2022/06/06 05:22:02;;;;;;;10.35;5.75;;;;;;;;;;5048070;28;20039;-75
2022/06/06 05:24:28;;;;;;;8.50;5.88;;;;;;;;;;5042604;28;20492;-75
2022/06/06 05:27:21;;;;;;;8.90;5.63;;;;;;;;;;5047771;28;20033;-75
2022/06/06 05:29:49;;;;;;;10.93;6.50;;;;;;;;;;5034429;28;20065;-75
2022/06/06 05:32:16;;;;;;;9.90;6.63;;;;;;;;;;5049598;28;20025;-75
2022/06/06 05:34:57;;;;;;;11.88;6.78;;;;;;;;;;5050067;28;20049;-73
2022/06/06 05:37:31;;;;;;;9.65;6.78;;;;;;;;;;5044488;28;20129;-76
2022/06/06 05:40:00;;;;;;;9.30;7.43;;;;;;;;;;5040514;28;20037;-75
2022/06/06 05:42:32;;;;;;;13.27;7.53;;;;;;;;;;5042860;28;20055;-74
2022/06/06 05:45:08;;;;;;;14.32;7.90;;;;;;;;;;5036381;28;20040;-75
2022/06/06 05:47:54;;;;;;;14.40;8.57;;;;;;;;;;5034832;28;20021;-76
2022/06/06 05:50:38;;;;;;;19.25;10.73;;;;;;;;;;5027704;28;20037;-76
2022/06/06 05:53:23;;;;;;;21.63;9.95;;;;;;;;;;5035145;28;20063;-74
2022/06/06 05:55:58;;;;;;;23.80;10.82;;;;;;;;;;5035151;28;20384;-74
2022/06/06 05:58:24;;;;;;;19.95;11.27;;;;;;;;;;5035464;28;20029;-74
2022/06/06 06:01:12;;;;;;;18.40;10.43;;;;;;;;;;5035100;28;20047;-75
2022/06/06 06:03:57;;;;;;;21.15;11.50;;;;;;;;;;5035805;28;20034;-74
2022/06/06 06:06:49;;;;;;;21.55;12.30;;;;;;;;;;5036156;28;20072;-75
2022/06/06 06:09:24;;;;;;;22.85;12.18;;;;;;;;;;5019015;28;20136;-75
2022/06/06 06:12:09;;;;;;;23.98;13.57;;;;;;;;;;5035207;28;20021;-74
2022/06/06 06:14:35;;;;;;;21.27;13.15;;;;;;;;;;5035456;28;20022;-75
2022/06/06 06:17:03;;;;;;;26.13;14.52;;;;;;;;;;5034484;28;20036;-76
2022/06/06 06:19:36;;;;;;;25.42;14.35;;;;;;;;;;5034120;28;20130;-75
2022/06/06 06:22:03;;;;;;;27.90;14.63;;;;;;;;;;5034801;28;20061;-72
2022/06/06 06:24:34;;;;;;;28.65;15.98;;;;;;;;;;5036905;28;20544;-75
2022/06/06 06:27:01;;;;;;;32.20;16.25;;;;;;;;;;5035036;28;20028;-76
2022/06/06 06:29:27;;;;;;;31.58;16.88;;;;;;;;;;5038876;28;20033;-73
2022/06/06 06:32:08;;;;;;;29.08;16.30;;;;;;;;;;5039710;28;20029;-73
2022/06/06 06:34:41;;;;;;;32.88;17.42;;;;;;;;;;5036684;28;20025;-75
2022/06/06 06:37:17;;;;;;;35.33;18.00;;;;;;;;;;5042968;28;20040;-74
2022/06/06 06:39:59;;;;;;;32.53;17.45;;;;;;;;;;5055774;28;20025;-74
2022/06/06 06:42:28;;;;;;;29.45;16.83;;;;;;;;;;5054654;28;20057;-73
2022/06/06 06:45:01;;;;;;;35.10;19.70;;;;;;;;;;5055716;28;20057;-71
2022/06/06 06:47:29;;;;;;;40.63;21.30;;;;;;;;;;5055213;28;20022;-74
2022/06/06 06:50:06;;;;;;;33.38;19.98;;;;;;;;;;5053238;28;20061;-73
2022/06/06 06:52:51;;;;;;;35.10;20.10;;;;;;;;;;5034453;28;20041;-74
2022/06/06 06:55:25;;;;;;;40.10;22.55;;;;;;;;;;5034225;28;20053;-75
2022/06/06 06:58:06;;;;;;;42.23;23.33;;;;;;;;;;5034016;28;20029;-74
2022/06/06 07:00:42;;;;;;;38.35;22.52;;;;;;;;;;5034931;28;20112;-74
2022/06/06 07:09:02;;;;;;;37.00;19.45;;;;;;;;;;5033414;28;20079;-75
2022/06/06 07:11:48;;;;;;;39.92;20.05;;;;;;;;;;5031812;28;20025;-74
2022/06/06 07:14:40;;;;;;;36.80;20.05;;;;;;;;;;5033457;28;20025;-75
2022/06/06 07:17:08;;;;;;;40.25;19.38;;;;;;;;;;5033083;28;20060;-75
2022/06/06 07:19:40;;;;;;;36.92;19.00;;;;;;;;;;5033303;28;20552;-73
2022/06/06 07:22:06;;;;;;;29.55;15.40;;;;;;;;;;5033134;28;20041;-74
2022/06/06 07:24:33;;;;;;;31.15;15.02;;;;;;;;;;5033163;28;20033;-74
2022/06/06 07:27:00;;;;;;;27.23;14.48;;;;;;;;;;5036119;28;20025;-75
2022/06/06 07:29:26;;;;;;;25.77;13.88;;;;;;;;;;5034853;28;20414;-77
2022/06/06 07:31:58;;;;;;;26.73;15.25;;;;;;;;;;5032976;28;20433;-75
2022/06/06 07:34:30;;;;;;;27.40;15.18;;;;;;;;;;5035033;28;20060;-75
2022/06/06 07:37:06;;;;;;;23.27;14.40;;;;;;;;;;5032728;28;20021;-75
2022/06/06 07:39:46;;;;;;;31.02;14.38;;;;;;;;;;5033035;28;20017;-75
2022/06/06 07:42:30;;;;;;;24.15;14.65;;;;;;;;;;5033086;28;20033;-74
2022/06/06 07:45:11;;;;;;;24.10;14.75;;;;;;;;;;5033342;28;20029;-77
2022/06/06 07:47:54;;;;;;;25.83;15.05;;;;;;;;;;5032730;28;20033;-76
2022/06/06 07:50:25;;;;;;;25.65;14.07;;;;;;;;;;5034431;28;20493;-75
2022/06/06 07:53:11;;;;;;;26.88;14.65;;;;;;;;;;5033259;28;20032;-76
2022/06/06 07:55:46;;;;;;;22.25;13.57;;;;;;;;;;5032811;28;20502;-74
2022/06/06 07:58:19;;;;;;;20.08;13.05;;;;;;;;;;5033100;28;20025;-74
2022/06/06 08:00:57;;;;;;;22.35;12.82;;;;;;;;;;5033093;28;20030;-75
2022/06/06 08:03:30;;;;;;;19.98;11.98;;;;;;;;;;5033266;28;20021;-75
2022/06/06 08:06:15;;;;;;;22.83;10.70;;;;;;;;;;5032845;28;20645;-76
2022/06/06 08:08:55;;;;;;;19.02;10.52;;;;;;;;;;5033348;28;20076;-76
2022/06/06 08:11:36;;;;;;;16.90;10.27;;;;;;;;;;5032887;28;20022;-76
2022/06/06 08:14:20;;;;;;;19.75;10.90;;;;;;;;;;5034592;28;20030;-75
2022/06/06 08:17:10;;;;;;;18.87;11.83;;;;;;;;;;5036769;28;20036;-78
2022/06/06 08:19:58;;;;;;;22.80;11.90;;;;;;;;;;5034436;28;20100;-76
2022/06/06 08:22:25;;;;;;;17.55;10.80;;;;;;;;;;5035687;28;20498;-79
2022/06/06 08:24:53;;;;;;;18.17;10.57;;;;;;;;;;5034157;28;20028;-77
2022/06/06 08:27:19;;;;;;;20.98;11.30;;;;;;;;;;5032393;28;20060;-76
2022/06/06 08:29:46;;;;;;;15.38;10.68;;;;;;;;;;5031897;28;20026;-76
2022/06/06 08:32:13;;;;;;;16.60;10.85;;;;;;;;;;5034791;28;20029;-75
2022/06/06 08:34:39;;;;;;;17.45;10.45;;;;;;;;;;5037661;28;20030;-76
2022/06/06 08:37:14;;;;;;;18.10;11.15;;;;;;;;;;5043911;28;20022;-76
2022/06/06 08:39:40;;;;;;;;;;;;;;;;;;5040015;28;20026;-76
2022/06/06 08:42:08;;;;;;;14.40;9.35;;;;;;;;;;5041789;28;19912;-76
2022/06/06 08:44:34;;;;;;;22.15;10.32;;;;;;;;;;5038755;28;20018;-76
2022/06/06 08:47:04;;;;;;;16.85;9.90;;;;;;;;;;5048291;28;20032;-75
2022/06/06 08:52:58;;;;;;;14.25;8.27;;;;;;;;;;5047252;28;20489;-76
2022/06/06 08:55:39;;;;;;;14.45;8.70;;;;;;;;;;5046907;28;20094;-76
2022/06/06 08:58:15;;;;;;;12.27;8.20;;;;;;;;;;5038504;28;20120;-76
2022/06/06 09:00:47;;;;;;;11.93;7.45;;;;;;;;;;5038505;28;20028;-79
2022/06/06 09:03:31;;;;;;;12.57;7.35;;;;;;;;;;5037365;28;20075;-77
2022/06/06 09:06:16;;;;;;;11.63;6.85;;;;;;;;;;5037935;28;20467;-76
2022/06/06 09:08:42;;;;;;;12.32;7.10;;;;;;;;;;5037436;28;20083;-75
2022/06/06 09:11:27;;;;;;;12.23;7.70;;;;;;;;;;5038593;28;20053;-76
2022/06/06 09:14:14;;;;;;;13.00;8.35;;;;;;;;;;5042203;28;20037;-76
2022/06/06 09:16:58;;;;;;;11.00;8.07;;;;;;;;;;5045053;28;20017;-76
2022/06/06 09:19:43;;;;;;;11.18;7.93;;;;;;;;;;5058534;28;20109;-77
2022/06/06 09:22:25;;;;;;;15.48;7.53;;;;;;;;;;5060382;28;20109;-76
2022/06/06 09:25:09;;;;;;;15.00;8.25;;;;;;;;;;5059845;28;20045;-77
2022/06/06 09:27:41;;;;;;;11.88;7.80;;;;;;;;;;5056831;28;20014;-74
2022/06/06 09:30:07;;;;;;;13.18;8.18;;;;;;;;;;5060024;28;20426;-77
2022/06/06 09:32:33;;;;;;;12.38;7.80;;;;;;;;;;5042176;28;20454;-77
2022/06/06 09:35:16;;;;;;;12.45;7.57;;;;;;;;;;5039518;28;20025;-76
2022/06/06 09:38:04;;;;;;;12.82;8.02;;;;;;;;;;5040519;28;20489;-75
2022/06/06 09:40:49;;;;;;;13.02;7.95;;;;;;;;;;5038625;28;20089;-76
2022/06/06 09:43:21;;;;;;;12.77;8.90;;;;;;;;;;5035373;28;20046;-76
2022/06/06 09:46:02;;;;;;;14.75;8.80;;;;;;;;;;5036179;28;20025;-77
2022/06/06 09:48:28;;;;;;;15.90;8.80;;;;;;;;;;5036597;28;20135;-76
2022/06/06 09:51:17;;;;;;;13.82;9.27;;;;;;;;;;5036681;28;20407;-77
2022/06/06 09:59:01;;;;;;;14.93;8.43;;;;;;;;;;5026649;28;20030;-76
2022/06/06 09:59:51;;;;;;;14.77;8.02;;;;;;;;;;5036711;28;20143;-77
2022/06/06 10:02:47;;;;;;;12.85;7.53;;;;;;;;;;5039454;28;20087;-76
2022/06/06 10:05:33;;;;;;;12.95;7.97;;;;;;;;;;5049409;28;20041;-75
2022/06/06 10:08:29;;;;;;;14.65;8.48;;;;;;;;;;5049862;28;20029;-77
2022/06/06 10:11:02;;;;;;;14.57;8.50;;;;;;;;;;5044894;28;20026;-77
2022/06/06 10:13:35;;;;;;;15.48;9.48;;;;;;;;;;5036874;28;20029;-77
2022/06/06 10:16:25;;;;;;;15.93;9.87;;;;;;;;;;5036878;28;20057;-77
2022/06/06 10:19:12;;;;;;;15.88;9.82;;;;;;;;;;5037900;28;20029;-78
2022/06/06 10:21:38;;;;;;;19.38;9.88;;;;;;;;;;5039694;28;20025;-75
2022/06/06 10:24:23;;;;;;;15.63;9.20;;;;;;;;;;5041091;28;20073;-75
2022/06/06 10:26:58;;;;;;;15.43;9.23;;;;;;;;;;5036813;28;20017;-75
2022/06/06 10:30:10;;;;;;;15.68;8.25;;;;;;;;;;5039744;28;20028;-74
2022/06/06 10:32:22;;;;;;;15.82;9.77;;;;;;;;;;5035110;28;20029;-75
2022/06/06 10:34:57;;;;;;;18.17;10.32;;;;;;;;;;5034282;28;20487;-75
2022/06/06 10:37:42;;;;;;;15.10;9.05;;;;;;;;;;5032574;28;20562;-76
2022/06/06 10:40:11;;;;;;;15.60;8.73;;;;;;;;;;5033436;28;20483;-75
2022/06/06 10:42:57;;;;;;;13.20;8.23;;;;;;;;;;5034418;28;20475;-76
2022/06/06 10:45:26;;;;;;;15.52;8.73;;;;;;;;;;5031251;28;20028;-77
2022/06/06 10:48:07;;;;;;;14.80;8.77;;;;;;;;;;5035049;28;20022;-76
2022/06/06 10:53:49;;;;;;;18.30;9.35;;;;;;;;;;5034873;28;20020;-76
2022/06/06 10:56:31;;;;;;;15.13;8.77;;;;;;;;;;5034193;28;20033;-76
2022/06/06 10:59:06;;;;;;;17.17;8.98;;;;;;;;;;5034538;28;20029;-75
2022/06/06 11:01:32;;;;;;;13.20;8.40;;;;;;;;;;5034896;28;20061;-76
2022/06/06 11:04:09;;;;;;;16.55;8.95;;;;;;;;;;5033947;28;20032;-77
2022/06/06 11:06:54;;;;;;;11.65;7.20;;;;;;;;;;5033133;28;20056;-75
2022/06/06 11:09:21;;;;;;;;;;;;;;;;;;5033443;28;20028;-75
2022/06/06 11:11:50;;;;;;;12.73;8.18;;;;;;;;;;5033774;28;19952;-75
2022/06/06 11:14:28;;;;;;;15.85;8.27;;;;;;;;;;5033454;28;20049;-76
2022/06/06 11:17:13;;;;;;;12.82;7.85;;;;;;;;;;5044949;28;20035;-76
2022/06/06 11:19:57;;;;;;;17.92;7.93;;;;;;;;;;5033717;28;20033;-75
2022/06/06 11:22:23;;;;;;;12.38;8.55;;;;;;;;;;5032580;28;20442;-75
2022/06/06 11:25:02;;;;;;;13.20;7.50;;;;;;;;;;5032840;28;20069;-75
2022/06/06 11:27:34;;;;;;;16.30;7.65;;;;;;;;;;5031643;28;20056;-75
2022/06/06 11:30:07;;;;;;;9.65;6.00;;;;;;;;;;5032742;28;20021;-75
2022/06/06 11:32:41;;;;;;;12.32;6.78;;;;;;;;;;5032947;28;20028;-74
2022/06/06 11:35:08;;;;;;;;;;;;;;;;;;5035727;28;20049;-74
2022/06/06 11:37:54;;;;;;;10.40;7.20;;;;;;;;;;5032701;28;20378;-76
2022/06/06 11:40:39;;;;;;;13.43;8.18;;;;;;;;;;5031068;28;20047;-75
2022/06/06 11:43:05;;;;;;;;;;;;;;;;;;5032541;28;20077;-74
2022/06/06 11:45:40;;;;;;;22.65;9.13;;;;;;;;;;5033705;28;19975;-76
2022/06/06 11:48:18;;;;;;;15.05;7.85;;;;;;;;;;5034879;28;20209;-75
2022/06/06 11:51:03;;;;;;;17.77;8.70;;;;;;;;;;5036288;28;20100;-75
2022/06/06 11:53:47;;;;;;;13.63;8.38;;;;;;;;;;5048911;28;20052;-76
2022/06/06 11:56:42;;;;;;;11.35;6.90;;;;;;;;;;5044179;28;20033;-76
2022/06/06 11:59:10;;;;;;;;;;;;;;;;;;5047215;28;20048;-76
2022/06/06 12:01:55;;;;;;;15.07;7.78;;;;;;;;;;5044756;28;19915;-76
2022/06/06 12:04:38;;;;;;;11.00;6.80;;;;;;;;;;5053102;28;20022;-75
2022/06/06 12:07:07;;;;;;;12.05;6.57;;;;;;;;;;5055556;28;20068;-75
2022/06/06 12:09:53;;;;;;;9.85;6.30;;;;;;;;;;5056794;28;20047;-76
2022/06/06 12:12:37;;;;;;;13.23;7.10;;;;;;;;;;5049737;28;20025;-75
2022/06/06 12:15:22;;;;;;;10.73;6.38;;;;;;;;;;5036573;28;20095;-77
2022/06/06 12:17:48;;;;;;;11.13;6.10;;;;;;;;;;5035055;28;20072;-73
2022/06/06 12:20:31;;;;;;;8.60;5.28;;;;;;;;;;5033487;28;20025;-72
2022/06/06 12:23:17;;;;;;;6.75;5.00;;;;;;;;;;5032573;28;20030;-74
2022/06/06 12:26:03;;;;;;;5.93;4.47;;;;;;;;;;5034701;28;20021;-76
2022/06/06 12:28:32;;;;;;;9.27;5.18;;;;;;;;;;5032843;28;20021;-75
2022/06/06 12:31:19;;;;;;;6.32;4.40;;;;;;;;;;5037128;28;20524;-75
2022/06/06 12:33:59;;;;;;;7.53;4.38;;;;;;;;;;5036857;28;20033;-75
2022/06/06 12:36:29;;;;;;;6.78;4.25;;;;;;;;;;5037391;28;20021;-72
2022/06/06 12:39:14;;;;;;;7.40;4.20;;;;;;;;;;5038716;28;20037;-75
2022/06/06 12:41:50;;;;;;;7.32;3.60;;;;;;;;;;5039347;28;20029;-77
2022/06/06 12:44:35;;;;;;;10.27;3.00;;;;;;;;;;5038650;28;20033;-75
2022/06/06 12:47:17;;;;;;;9.32;3.40;;;;;;;;;;5037174;28;20056;-75
2022/06/06 12:50:00;;;;;;;6.45;3.22;;;;;;;;;;5036128;28;20036;-77
2022/06/06 12:52:38;;;;;;;6.15;3.08;;;;;;;;;;5037505;28;20064;-76
2022/06/06 12:57:52;;;;;;;4.10;2.33;;;;;;;;;;5037141;28;20037;-74
2022/06/06 13:03:19;;;;;;;3.65;2.65;;;;;;;;;;5037626;28;20048;-75
2022/06/06 13:05:59;;;;;;;5.70;3.10;;;;;;;;;;5037020;28;20117;-74
2022/06/06 13:08:44;;;;;;;11.32;3.55;;;;;;;;;;5040949;28;20024;-75
2022/06/06 13:11:39;;;;;;;7.15;2.90;;;;;;;;;;5036969;28;20025;-73
2022/06/06 13:14:05;;;;;;;12.70;4.50;;;;;;;;;;5036899;28;20049;-75
2022/06/06 13:16:37;;;;;;;5.53;4.03;;;;;;;;;;5036516;28;20124;-75
2022/06/06 13:19:12;;;;;;;6.25;3.67;;;;;;;;;;5035913;28;20026;-74
2022/06/06 13:21:42;;;;;;;4.75;3.33;;;;;;;;;;5036119;28;20063;-74
2022/06/06 13:24:08;;;;;;;7.13;3.33;;;;;;;;;;5037494;28;20025;-73
2022/06/06 13:26:39;;;;;;;6.80;2.85;;;;;;;;;;5035802;28;20394;-74
2022/06/06 13:29:05;;;;;;;4.03;1.90;;;;;;;;;;5036286;28;20470;-75
2022/06/06 13:31:51;;;;;;;3.90;2.30;;;;;;;;;;5035277;28;20359;-75
2022/06/06 13:34:20;;;;;;;4.65;2.33;;;;;;;;;;5037228;28;20021;-74
2022/06/06 13:37:01;;;;;;;6.68;2.08;;;;;;;;;;5041335;28;20542;-75
2022/06/06 13:39:48;;;;;;;3.60;2.13;;;;;;;;;;5046997;28;20029;-75
2022/06/06 13:42:26;;;;;;;3.92;1.83;;;;;;;;;;5045397;28;20013;-76
2022/06/06 13:45:01;;;;;;;2.80;2.00;;;;;;;;;;5038181;28;20028;-75
2022/06/06 13:47:37;;;;;;;3.28;1.90;;;;;;;;;;5034959;28;20490;-76
2022/06/06 13:50:12;;;;;;;4.47;2.13;;;;;;;;;;5034084;28;20428;-75
2022/06/06 13:52:56;;;;;;;3.97;1.90;;;;;;;;;;5036584;28;20390;-77
2022/06/06 13:55:23;;;;;;;3.70;2.00;;;;;;;;;;5037407;28;20021;-78
2022/06/06 13:57:55;;;;;;;6.75;2.60;;;;;;;;;;5037464;28;20383;-77
2022/06/06 14:00:25;;;;;;;4.95;2.30;;;;;;;;;;5037860;28;20064;-75
2022/06/06 14:02:51;;;;;;;3.40;2.22;;;;;;;;;;5036807;28;20029;-78
2022/06/06 14:05:28;;;;;;;4.15;2.95;;;;;;;;;;5035174;28;20021;-76
2022/06/06 14:08:09;;;;;;;6.57;3.30;;;;;;;;;;5039032;28;20026;-76
2022/06/06 14:10:59;;;;;;;2.45;1.83;;;;;;;;;;5035111;28;20021;-76
2022/06/06 14:13:31;;;;;;;8.63;2.25;;;;;;;;;;5030409;28;20044;-76
2022/06/06 14:15:58;;;;;;;3.05;1.80;;;;;;;;;;5034853;28;20033;-76
2022/06/06 14:18:35;;;;;;;3.75;1.73;;;;;;;;;;5035459;28;20021;-74
2022/06/06 14:21:03;;;;;;;4.05;1.75;;;;;;;;;;5035053;28;20380;-76
2022/06/06 14:23:28;;;;;;;4.75;1.70;;;;;;;;;;5035988;28;20117;-76
2022/06/06 14:25:57;;;;;;;4.68;1.70;;;;;;;;;;5036667;28;20065;-77
2022/06/06 14:28:25;;;;;;;3.90;1.52;;;;;;;;;;5036368;28;20375;-76
2022/06/06 14:30:52;;;;;;;3.13;1.50;;;;;;;;;;5033207;28;20022;-76
2022/06/06 14:33:22;;;;;;;3.97;1.42;;;;;;;;;;5031716;28;20032;-75
2022/06/06 14:35:48;;;;;;;4.57;1.90;;;;;;;;;;5036241;28;20029;-75
2022/06/06 14:38:17;;;;;;;2.83;1.67;;;;;;;;;;5049520;28;20026;-76
2022/06/06 14:40:43;;;;;;;1.70;1.30;;;;;;;;;;5053388;28;20018;-75
2022/06/06 14:43:09;;;;;;;2.00;1.55;;;;;;;;;;5054775;28;20044;-76
2022/06/06 14:45:37;;;;;;;3.17;1.23;;;;;;;;;;5057754;28;20101;-75
2022/06/06 14:48:12;;;;;;;4.53;1.38;;;;;;;;;;5059311;28;20040;-76
2022/06/06 14:50:47;;;;;;;;;;;;;;;;;;5042301;28;20034;-75
2022/06/06 14:53:16;;;;;;;4.65;1.55;;;;;;;;;;5034920;28;19912;-76
2022/06/06 14:55:46;;;;;;;4.82;1.65;;;;;;;;;;5035336;28;20022;-75
2022/06/06 14:58:14;;;;;;;4.68;1.52;;;;;;;;;;5037419;28;20406;-75
2022/06/06 15:00:52;;;;;;;2.95;1.60;;;;;;;;;;5035941;28;20041;-75
2022/06/06 15:03:18;;;;;;;5.47;1.20;;;;;;;;;;5038425;28;20017;-77
2022/06/06 15:05:44;;;;;;;2.85;1.33;;;;;;;;;;5047532;28;20030;-75
2022/06/06 15:08:15;;;;;;;6.43;1.45;;;;;;;;;;5053415;28;20072;-76
2022/06/06 15:10:45;;;;;;;7.45;1.23;;;;;;;;;;5050760;28;20094;-75
2022/06/06 15:13:12;;;;;;;3.55;1.20;;;;;;;;;;5042617;28;20073;-76
2022/06/06 15:15:39;;;;;;;2.75;1.10;;;;;;;;;;5042637;28;20025;-76
2022/06/06 15:18:05;;;;;;;3.53;1.73;;;;;;;;;;5043449;28;20036;-76
2022/06/06 15:20:33;;;;;;;5.07;1.48;;;;;;;;;;5044583;28;20048;-76
2022/06/06 15:23:02;;;;;;;2.35;0.95;;;;;;;;;;5042914;28;20132;-76
2022/06/06 15:25:38;;;;;;;1.67;0.85;;;;;;;;;;5042992;28;20033;-77
2022/06/06 15:28:23;;;;;;;1.65;1.10;;;;;;;;;;5038298;28;20394;-76
2022/06/06 15:30:57;;;;;;;2.25;1.20;;;;;;;;;;5033460;28;20468;-76
2022/06/06 15:33:49;;;;;;;2.60;1.25;;;;;;;;;;5034371;28;20018;-77
2022/06/06 15:36:23;;;;;;;4.55;1.52;;;;;;;;;;4994780;28;20033;-76
2022/06/06 15:39:00;;;;;;;3.20;1.40;;;;;;;;;;5033837;28;20087;-76
2022/06/06 15:41:42;;;;;;;3.42;1.70;;;;;;;;;;5032052;28;20056;-77
2022/06/06 15:44:26;;;;;;;1.52;1.00;;;;;;;;;;5032494;28;20021;-76